sensor_id;sensor_type;location;lat;lon;timestamp;pressure;altitude;pressure_sealevel;temperature;humidity
39075;BME280;24826;52.070;20.970;2023-02-23T00:02:51;61438.44;;;-147.04;47.57
39075;BME280;24826;52.070;20.970;2023-02-23T00:05:36;61420.53;;;-147.04;48.48
39075;BME280;24826;52.070;20.970;2023-02-23T00:08:20;61432.47;;;-147.04;48.76
39075;BME280;24826;52.070;20.970;2023-02-23T00:11:10;61430.47;;;-147.04;49.09
39075;BME280;24826;52.070;20.970;2023-02-23T00:13:58;61432.47;;;-147.04;49.10
39075;BME280;24826;52.070;20.970;2023-02-23T00:16:44;61408.59;;;-147.04;49.70
39075;BME280;24826;52.070;20.970;2023-02-23T00:19:29;61432.47;;;-147.04;48.77
39075;BME280;24826;52.070;20.970;2023-02-23T00:22:16;61452.34;;;-147.04;48.96
39075;BME280;24826;52.070;20.970;2023-02-23T00:25:01;61430.47;;;-147.04;48.55
39075;BME280;24826;52.070;20.970;2023-02-23T00:27:45;61432.47;;;-147.04;48.54
39075;BME280;24826;52.070;20.970;2023-02-23T00:30:30;61462.28;;;-147.04;49.84
39075;BME280;24826;52.070;20.970;2023-02-23T00:33:15;61422.53;;;-147.04;49.59
39075;BME280;24826;52.070;20.970;2023-02-23T00:36:17;61424.50;;;-147.04;49.40
39075;BME280;24826;52.070;20.970;2023-02-23T00:39:05;61416.56;;;-147.04;50.83
39075;BME280;24826;52.070;20.970;2023-02-23T00:42:01;61422.53;;;-147.04;50.30
39075;BME280;24826;52.070;20.970;2023-02-23T00:44:45;61420.53;;;-147.04;50.30
39075;BME280;24826;52.070;20.970;2023-02-23T00:47:31;61438.44;;;-147.04;49.78
39075;BME280;24826;52.070;20.970;2023-02-23T00:50:16;61436.44;;;-147.04;50.64
39075;BME280;24826;52.070;20.970;2023-02-23T00:53:01;61442.41;;;-147.04;50.54
39075;BME280;24826;52.070;20.970;2023-02-23T00:55:45;61452.34;;;-147.04;50.64
39075;BME280;24826;52.070;20.970;2023-02-23T00:58:29;61488.13;;;-147.04;51.19
39075;BME280;24826;52.070;20.970;2023-02-23T01:01:14;61444.41;;;-147.04;51.03
39075;BME280;24826;52.070;20.970;2023-02-23T01:04:00;61458.31;;;-147.04;51.38
39075;BME280;24826;52.070;20.970;2023-02-23T01:06:45;61458.31;;;-147.04;50.84
39075;BME280;24826;52.070;20.970;2023-02-23T01:09:29;61432.47;;;-147.04;51.08
39075;BME280;24826;52.070;20.970;2023-02-23T01:12:13;61466.25;;;-147.04;50.74
39075;BME280;24826;52.070;20.970;2023-02-23T01:14:59;61442.41;;;-147.04;51.14
39075;BME280;24826;52.070;20.970;2023-02-23T01:17:46;61448.38;;;-147.04;51.62
39075;BME280;24826;52.070;20.970;2023-02-23T01:20:33;61452.34;;;-147.04;52.46
39075;BME280;24826;52.070;20.970;2023-02-23T01:23:19;61426.50;;;-147.04;51.73
39075;BME280;24826;52.070;20.970;2023-02-23T01:26:04;61456.31;;;-147.04;51.68
39075;BME280;24826;52.070;20.970;2023-02-23T01:28:50;61452.34;;;-147.04;52.00
39075;BME280;24826;52.070;20.970;2023-02-23T01:31:37;61462.28;;;-147.04;51.45
39075;BME280;24826;52.070;20.970;2023-02-23T01:34:22;61460.31;;;-147.04;52.55
39075;BME280;24826;52.070;20.970;2023-02-23T01:37:06;61468.25;;;-147.04;52.53
39075;BME280;24826;52.070;20.970;2023-02-23T01:39:51;61464.28;;;-147.04;52.62
39075;BME280;24826;52.070;20.970;2023-02-23T01:42:37;61454.34;;;-147.04;52.56
39075;BME280;24826;52.070;20.970;2023-02-23T01:45:34;61428.47;;;-147.04;52.64
39075;BME280;24826;52.070;20.970;2023-02-23T01:48:22;61418.53;;;-147.04;52.22
39075;BME280;24826;52.070;20.970;2023-02-23T01:51:18;61460.31;;;-147.04;53.14
39075;BME280;24826;52.070;20.970;2023-02-23T01:54:07;61452.34;;;-147.04;53.28
39075;BME280;24826;52.070;20.970;2023-02-23T01:56:54;61442.41;;;-147.04;52.71
39075;BME280;24826;52.070;20.970;2023-02-23T01:59:45;61458.31;;;-147.04;53.26
39075;BME280;24826;52.070;20.970;2023-02-23T02:02:30;61420.53;;;-147.04;53.79
39075;BME280;24826;52.070;20.970;2023-02-23T02:05:17;61436.44;;;-147.04;53.55
39075;BME280;24826;52.070;20.970;2023-02-23T02:08:03;61476.22;;;-147.04;53.81
39075;BME280;24826;52.070;20.970;2023-02-23T02:10:50;61440.41;;;-147.04;53.77
39075;BME280;24826;52.070;20.970;2023-02-23T02:13:39;61436.44;;;-147.04;53.85
39075;BME280;24826;52.070;20.970;2023-02-23T02:22:38;61432.47;;;-147.04;55.47
39075;BME280;24826;52.070;20.970;2023-02-23T02:25:35;61470.25;;;-147.04;56.27
39075;BME280;24826;52.070;20.970;2023-02-23T02:34:42;61452.34;;;-147.04;56.84
39075;BME280;24826;52.070;20.970;2023-02-23T02:37:46;61464.28;;;-147.04;57.64
39075;BME280;24826;52.070;20.970;2023-02-23T02:40:52;61484.16;;;-147.04;57.64
39075;BME280;24826;52.070;20.970;2023-02-23T02:43:53;61468.25;;;-147.04;57.28
39075;BME280;24826;52.070;20.970;2023-02-23T02:46:45;61519.94;;;-147.04;58.22
39075;BME280;24826;52.070;20.970;2023-02-23T02:49:38;61482.19;;;-147.04;58.29
39075;BME280;24826;52.070;20.970;2023-02-23T02:52:32;61428.47;;;-147.04;57.80
39075;BME280;24826;52.070;20.970;2023-02-23T02:55:25;61480.19;;;-147.04;58.64
39075;BME280;24826;52.070;20.970;2023-02-23T02:58:11;61472.22;;;-147.04;58.65
39075;BME280;24826;52.070;20.970;2023-02-23T03:01:05;61492.13;;;-147.04;59.01
39075;BME280;24826;52.070;20.970;2023-02-23T03:04:23;61480.19;;;-147.04;60.34
39075;BME280;24826;52.070;20.970;2023-02-23T03:07:34;61482.19;;;-147.04;60.78
39075;BME280;24826;52.070;20.970;2023-02-23T03:17:37;61488.13;;;-147.04;60.87
39075;BME280;24826;52.070;20.970;2023-02-23T03:20:47;61488.13;;;-147.04;60.99
39075;BME280;24826;52.070;20.970;2023-02-23T03:24:00;61472.22;;;-147.04;61.20
39075;BME280;24826;52.070;20.970;2023-02-23T03:30:28;61472.22;;;-147.04;61.61
39075;BME280;24826;52.070;20.970;2023-02-23T03:33:42;61474.22;;;-147.04;61.32
39075;BME280;24826;52.070;20.970;2023-02-23T03:36:51;61428.47;;;-147.04;61.10
39075;BME280;24826;52.070;20.970;2023-02-23T03:40:20;61496.09;;;-147.04;60.90
39075;BME280;24826;52.070;20.970;2023-02-23T03:43:34;61468.25;;;-147.04;61.84
39075;BME280;24826;52.070;20.970;2023-02-23T03:46:39;61470.25;;;-147.04;61.98
39075;BME280;24826;52.070;20.970;2023-02-23T03:49:44;61488.13;;;-147.04;61.97
39075;BME280;24826;52.070;20.970;2023-02-23T03:52:55;61464.28;;;-147.04;62.85
39075;BME280;24826;52.070;20.970;2023-02-23T03:56:00;61545.81;;;-147.04;62.98
39075;BME280;24826;52.070;20.970;2023-02-23T03:59:05;61484.16;;;-147.04;63.84
39075;BME280;24826;52.070;20.970;2023-02-23T04:02:11;61406.63;;;-147.04;63.44
39075;BME280;24826;52.070;20.970;2023-02-23T04:05:18;61426.50;;;-147.04;64.11
39075;BME280;24826;52.070;20.970;2023-02-23T04:08:27;61450.34;;;-147.04;64.85
39075;BME280;24826;52.070;20.970;2023-02-23T04:11:41;61472.22;;;-147.04;65.55
39075;BME280;24826;52.070;20.970;2023-02-23T04:15:06;61434.44;;;-147.04;66.04
39075;BME280;24826;52.070;20.970;2023-02-23T04:17:52;61452.34;;;-147.04;65.73
39075;BME280;24826;52.070;20.970;2023-02-23T04:20:37;61460.31;;;-147.04;66.27
39075;BME280;24826;52.070;20.970;2023-02-23T04:23:22;61456.31;;;-147.04;67.25
39075;BME280;24826;52.070;20.970;2023-02-23T04:26:07;61436.44;;;-147.04;66.83
39075;BME280;24826;52.070;20.970;2023-02-23T04:28:51;61444.41;;;-147.04;66.91
39075;BME280;24826;52.070;20.970;2023-02-23T04:31:35;61428.47;;;-147.04;67.59
39075;BME280;24826;52.070;20.970;2023-02-23T04:34:20;61412.56;;;-147.04;68.85
39075;BME280;24826;52.070;20.970;2023-02-23T04:37:04;61436.44;;;-147.04;70.25
39075;BME280;24826;52.070;20.970;2023-02-23T04:39:48;61450.34;;;-147.04;70.27
39075;BME280;24826;52.070;20.970;2023-02-23T04:42:33;61456.31;;;-147.04;70.73
39075;BME280;24826;52.070;20.970;2023-02-23T04:45:17;61452.34;;;-147.04;69.87
39075;BME280;24826;52.070;20.970;2023-02-23T04:48:02;61446.38;;;-147.04;70.47
39075;BME280;24826;52.070;20.970;2023-02-23T04:50:51;61430.47;;;-147.04;70.30
39075;BME280;24826;52.070;20.970;2023-02-23T04:53:37;61404.63;;;-147.04;70.48
39075;BME280;24826;52.070;20.970;2023-02-23T04:56:21;61434.44;;;-147.04;71.18
39075;BME280;24826;52.070;20.970;2023-02-23T04:59:05;61420.53;;;-147.04;70.94
39075;BME280;24826;52.070;20.970;2023-02-23T05:01:50;61416.56;;;-147.04;71.13
39075;BME280;24826;52.070;20.970;2023-02-23T05:04:34;61436.44;;;-147.04;71.09
39075;BME280;24826;52.070;20.970;2023-02-23T05:07:18;61406.63;;;-147.04;71.61
39075;BME280;24826;52.070;20.970;2023-02-23T05:10:04;61436.44;;;-147.04;71.54
39075;BME280;24826;52.070;20.970;2023-02-23T05:12:49;61434.44;;;-147.04;71.71
39075;BME280;24826;52.070;20.970;2023-02-23T05:15:33;61396.66;;;-147.04;72.13
39075;BME280;24826;52.070;20.970;2023-02-23T05:18:17;61438.44;;;-147.04;72.08
39075;BME280;24826;52.070;20.970;2023-02-23T05:21:03;61432.47;;;-147.04;72.21
39075;BME280;24826;52.070;20.970;2023-02-23T05:23:50;61444.41;;;-147.04;71.92
39075;BME280;24826;52.070;20.970;2023-02-23T05:26:34;61440.41;;;-147.04;72.07
39075;BME280;24826;52.070;20.970;2023-02-23T05:29:19;61412.56;;;-147.04;71.97
39075;BME280;24826;52.070;20.970;2023-02-23T05:32:03;61428.47;;;-147.04;71.62
39075;BME280;24826;52.070;20.970;2023-02-23T05:34:48;61452.34;;;-147.04;71.76
39075;BME280;24826;52.070;20.970;2023-02-23T05:37:32;61424.50;;;-147.04;72.02
39075;BME280;24826;52.070;20.970;2023-02-23T05:40:17;61434.44;;;-147.04;71.64
39075;BME280;24826;52.070;20.970;2023-02-23T05:43:01;61432.47;;;-147.04;71.89
39075;BME280;24826;52.070;20.970;2023-02-23T05:45:46;61404.63;;;-147.04;71.86
39075;BME280;24826;52.070;20.970;2023-02-23T05:48:30;61416.56;;;-147.04;71.82
39075;BME280;24826;52.070;20.970;2023-02-23T05:51:16;61428.47;;;-147.04;71.61
39075;BME280;24826;52.070;20.970;2023-02-23T05:54:01;61464.28;;;-147.04;71.54
39075;BME280;24826;52.070;20.970;2023-02-23T05:56:45;61432.47;;;-147.04;71.38
39075;BME280;24826;52.070;20.970;2023-02-23T05:59:30;61444.41;;;-147.04;71.78
39075;BME280;24826;52.070;20.970;2023-02-23T06:02:15;61456.31;;;-147.04;71.49
39075;BME280;24826;52.070;20.970;2023-02-23T06:04:59;61438.44;;;-147.04;71.75
39075;BME280;24826;52.070;20.970;2023-02-23T06:07:44;61494.09;;;-147.04;71.60
39075;BME280;24826;52.070;20.970;2023-02-23T06:10:28;61468.25;;;-147.04;71.46
39075;BME280;24826;52.070;20.970;2023-02-23T06:13:13;61454.34;;;-147.04;71.73
39075;BME280;24826;52.070;20.970;2023-02-23T06:15:58;61490.13;;;-147.04;71.59
39075;BME280;24826;52.070;20.970;2023-02-23T06:18:42;61508.03;;;-147.04;70.65
39075;BME280;24826;52.070;20.970;2023-02-23T06:21:27;61504.03;;;-147.04;71.25
39075;BME280;24826;52.070;20.970;2023-02-23T06:24:11;61508.03;;;-147.04;71.47
39075;BME280;24826;52.070;20.970;2023-02-23T06:26:55;61480.19;;;-147.04;71.45
39075;BME280;24826;52.070;20.970;2023-02-23T06:29:40;61462.28;;;-147.04;71.67
39075;BME280;24826;52.070;20.970;2023-02-23T06:32:25;61484.16;;;-147.04;70.85
39075;BME280;24826;52.070;20.970;2023-02-23T06:35:10;61517.97;;;-147.04;70.35
39075;BME280;24826;52.070;20.970;2023-02-23T06:37:55;61492.13;;;-147.04;70.36
39075;BME280;24826;52.070;20.970;2023-02-23T06:40:40;61492.13;;;-147.04;70.26
39075;BME280;24826;52.070;20.970;2023-02-23T06:43:24;61474.22;;;-147.04;69.83
39075;BME280;24826;52.070;20.970;2023-02-23T06:46:09;61498.09;;;-147.04;69.94
39075;BME280;24826;52.070;20.970;2023-02-23T06:48:54;61476.22;;;-147.04;69.98
39075;BME280;24826;52.070;20.970;2023-02-23T06:51:39;61484.16;;;-147.04;69.82
39075;BME280;24826;52.070;20.970;2023-02-23T06:54:23;61514.00;;;-147.04;69.22
39075;BME280;24826;52.070;20.970;2023-02-23T06:57:08;61508.03;;;-147.04;69.34
39075;BME280;24826;52.070;20.970;2023-02-23T06:59:52;61498.09;;;-147.04;68.81
39075;BME280;24826;52.070;20.970;2023-02-23T07:02:36;61496.09;;;-147.04;68.94
39075;BME280;24826;52.070;20.970;2023-02-23T07:05:21;61488.13;;;-147.04;68.16
39075;BME280;24826;52.070;20.970;2023-02-23T07:08:05;61452.34;;;-147.04;68.67
39075;BME280;24826;52.070;20.970;2023-02-23T07:10:50;61466.25;;;-147.04;68.26
39075;BME280;24826;52.070;20.970;2023-02-23T07:13:35;61514.00;;;-147.04;67.85
39075;BME280;24826;52.070;20.970;2023-02-23T07:16:19;61482.19;;;-147.04;68.50
39075;BME280;24826;52.070;20.970;2023-02-23T07:19:04;61496.09;;;-147.04;68.65
39075;BME280;24826;52.070;20.970;2023-02-23T07:21:48;61502.06;;;-147.04;67.38
39075;BME280;24826;52.070;20.970;2023-02-23T07:24:33;61468.25;;;-147.04;67.18
39075;BME280;24826;52.070;20.970;2023-02-23T07:27:17;61452.34;;;-147.04;67.06
39075;BME280;24826;52.070;20.970;2023-02-23T07:30:02;61500.06;;;-147.04;67.35
39075;BME280;24826;52.070;20.970;2023-02-23T07:32:46;61498.09;;;-147.04;67.45
39075;BME280;24826;52.070;20.970;2023-02-23T07:35:31;61482.19;;;-147.04;66.75
39075;BME280;24826;52.070;20.970;2023-02-23T07:38:15;61515.97;;;-147.04;66.75
39075;BME280;24826;52.070;20.970;2023-02-23T07:40:59;61502.06;;;-147.04;65.96
39075;BME280;24826;52.070;20.970;2023-02-23T07:43:44;61486.16;;;-147.04;65.67
39075;BME280;24826;52.070;20.970;2023-02-23T07:46:28;61464.28;;;-147.04;65.92
39075;BME280;24826;52.070;20.970;2023-02-23T07:49:12;61460.31;;;-147.04;65.50
39075;BME280;24826;52.070;20.970;2023-02-23T07:51:57;61488.13;;;-147.04;65.79
39075;BME280;24826;52.070;20.970;2023-02-23T07:54:41;61464.28;;;-147.04;66.30
39075;BME280;24826;52.070;20.970;2023-02-23T07:57:26;61494.09;;;-147.04;66.12
39075;BME280;24826;52.070;20.970;2023-02-23T08:00:11;61480.19;;;-147.04;66.04
39075;BME280;24826;52.070;20.970;2023-02-23T08:02:55;61490.13;;;-147.04;64.95
39075;BME280;24826;52.070;20.970;2023-02-23T08:05:40;61553.75;;;-147.04;64.89
39075;BME280;24826;52.070;20.970;2023-02-23T08:08:24;61468.25;;;-147.04;64.51
39075;BME280;24826;52.070;20.970;2023-02-23T08:11:10;61480.19;;;-147.04;63.92
39075;BME280;24826;52.070;20.970;2023-02-23T08:13:56;61462.28;;;-147.04;64.07
39075;BME280;24826;52.070;20.970;2023-02-23T08:16:43;61496.09;;;-147.04;64.55
39075;BME280;24826;52.070;20.970;2023-02-23T08:19:28;61517.97;;;-147.04;63.69
39075;BME280;24826;52.070;20.970;2023-02-23T08:22:13;61515.97;;;-147.04;63.32
39075;BME280;24826;52.070;20.970;2023-02-23T08:24:57;61502.06;;;-147.04;63.27
39075;BME280;24826;52.070;20.970;2023-02-23T08:27:42;61500.06;;;-147.04;62.37
39075;BME280;24826;52.070;20.970;2023-02-23T08:30:26;61496.09;;;-147.04;62.02
39075;BME280;24826;52.070;20.970;2023-02-23T08:33:11;61476.22;;;-147.04;61.89
39075;BME280;24826;52.070;20.970;2023-02-23T08:35:58;61523.94;;;-147.04;61.01
39075;BME280;24826;52.070;20.970;2023-02-23T08:38:42;61500.06;;;-147.04;59.57
39075;BME280;24826;52.070;20.970;2023-02-23T08:41:27;61492.13;;;-147.04;59.10
39075;BME280;24826;52.070;20.970;2023-02-23T08:44:12;61498.09;;;-147.04;58.55
39075;BME280;24826;52.070;20.970;2023-02-23T08:46:57;61519.94;;;-147.04;58.32
39075;BME280;24826;52.070;20.970;2023-02-23T08:49:41;61510.00;;;-147.04;57.75
39075;BME280;24826;52.070;20.970;2023-02-23T08:52:26;61434.44;;;-147.04;58.04
39075;BME280;24826;52.070;20.970;2023-02-23T08:55:12;61535.88;;;-147.04;57.78
39075;BME280;24826;52.070;20.970;2023-02-23T08:57:59;61484.16;;;-147.04;58.21
39075;BME280;24826;52.070;20.970;2023-02-23T09:00:43;61480.19;;;-147.04;59.46
39075;BME280;24826;52.070;20.970;2023-02-23T09:03:29;61508.03;;;-147.04;58.32
39075;BME280;24826;52.070;20.970;2023-02-23T09:06:18;61498.09;;;-147.04;56.99
39075;BME280;24826;52.070;20.970;2023-02-23T09:09:03;61480.19;;;-147.04;56.67
39075;BME280;24826;52.070;20.970;2023-02-23T09:11:48;61460.31;;;-147.04;57.02
39075;BME280;24826;52.070;20.970;2023-02-23T09:14:32;61484.16;;;-147.04;56.53
39075;BME280;24826;52.070;20.970;2023-02-23T09:17:17;61440.41;;;-147.04;56.07
39075;BME280;24826;52.070;20.970;2023-02-23T09:20:02;61456.31;;;-147.04;56.83
39075;BME280;24826;52.070;20.970;2023-02-23T09:22:47;61464.28;;;-147.04;56.24
39075;BME280;24826;52.070;20.970;2023-02-23T09:25:32;61446.38;;;-147.04;55.99
39075;BME280;24826;52.070;20.970;2023-02-23T09:28:18;61468.25;;;-147.04;55.39
39075;BME280;24826;52.070;20.970;2023-02-23T09:31:11;61456.31;;;-147.04;55.72
39075;BME280;24826;52.070;20.970;2023-02-23T09:33:55;61432.47;;;-147.04;55.76
39075;BME280;24826;52.070;20.970;2023-02-23T09:36:40;61442.41;;;-147.04;55.63
39075;BME280;24826;52.070;20.970;2023-02-23T09:39:24;61490.13;;;-147.04;55.96
39075;BME280;24826;52.070;20.970;2023-02-23T09:45:27;61458.31;;;-147.04;56.02
39075;BME280;24826;52.070;20.970;2023-02-23T09:48:17;61444.41;;;-147.04;56.08
39075;BME280;24826;52.070;20.970;2023-02-23T09:51:05;61426.50;;;-147.04;55.55
39075;BME280;24826;52.070;20.970;2023-02-23T09:53:53;61452.34;;;-147.04;55.31
39075;BME280;24826;52.070;20.970;2023-02-23T09:56:48;61444.41;;;-147.04;55.49
39075;BME280;24826;52.070;20.970;2023-02-23T09:59:33;61456.31;;;-147.04;54.99
39075;BME280;24826;52.070;20.970;2023-02-23T10:05:18;61440.41;;;-147.04;55.66
39075;BME280;24826;52.070;20.970;2023-02-23T10:08:13;61414.56;;;-147.04;55.62
39075;BME280;24826;52.070;20.970;2023-02-23T10:11:25;61448.38;;;-147.04;55.78
39075;BME280;24826;52.070;20.970;2023-02-23T10:14:22;61470.25;;;-147.04;55.43
39075;BME280;24826;52.070;20.970;2023-02-23T10:20:42;61412.56;;;-147.04;55.35
39075;BME280;24826;52.070;20.970;2023-02-23T10:23:49;61420.53;;;-147.04;55.18
39075;BME280;24826;52.070;20.970;2023-02-23T10:26:51;61434.44;;;-147.04;55.07
39075;BME280;24826;52.070;20.970;2023-02-23T10:29:44;61456.31;;;-147.04;55.05
39075;BME280;24826;52.070;20.970;2023-02-23T10:32:48;61432.47;;;-147.04;54.79
39075;BME280;24826;52.070;20.970;2023-02-23T10:35:36;61400.66;;;-147.04;55.22
39075;BME280;24826;52.070;20.970;2023-02-23T10:38:21;61468.25;;;-147.04;55.51
39075;BME280;24826;52.070;20.970;2023-02-23T10:41:06;61422.53;;;-147.04;54.88
39075;BME280;24826;52.070;20.970;2023-02-23T10:43:52;61450.34;;;-147.04;54.55
39075;BME280;24826;52.070;20.970;2023-02-23T10:46:38;61436.44;;;-147.04;54.86
39075;BME280;24826;52.070;20.970;2023-02-23T10:49:38;61404.63;;;-147.04;54.59
39075;BME280;24826;52.070;20.970;2023-02-23T10:52:38;61444.41;;;-147.04;54.61
39075;BME280;24826;52.070;20.970;2023-02-23T10:55:29;61416.56;;;-147.04;54.74
39075;BME280;24826;52.070;20.970;2023-02-23T10:58:16;61432.47;;;-147.04;54.66
39075;BME280;24826;52.070;20.970;2023-02-23T11:01:04;61404.63;;;-147.04;54.69
39075;BME280;24826;52.070;20.970;2023-02-23T11:03:49;61420.53;;;-147.04;54.10
39075;BME280;24826;52.070;20.970;2023-02-23T11:06:37;61420.53;;;-147.04;54.06
39075;BME280;24826;52.070;20.970;2023-02-23T11:09:30;61428.47;;;-147.04;54.07
39075;BME280;24826;52.070;20.970;2023-02-23T11:15:20;61438.44;;;-147.04;53.47
39075;BME280;24826;52.070;20.970;2023-02-23T11:18:05;61436.44;;;-147.04;52.97
39075;BME280;24826;52.070;20.970;2023-02-23T11:20:50;61474.22;;;-147.04;53.14
39075;BME280;24826;52.070;20.970;2023-02-23T11:23:35;61428.47;;;-147.04;52.80
39075;BME280;24826;52.070;20.970;2023-02-23T11:26:42;61422.53;;;-147.04;52.69
39075;BME280;24826;52.070;20.970;2023-02-23T11:29:38;61412.56;;;-147.04;53.79
39075;BME280;24826;52.070;20.970;2023-02-23T11:32:30;61400.66;;;-147.04;53.74
39075;BME280;24826;52.070;20.970;2023-02-23T11:38:15;61424.50;;;-147.04;53.11
39075;BME280;24826;52.070;20.970;2023-02-23T11:41:00;61474.22;;;-147.04;53.30
39075;BME280;24826;52.070;20.970;2023-02-23T11:43:57;61428.47;;;-147.04;52.72
39075;BME280;24826;52.070;20.970;2023-02-23T11:46:42;61412.56;;;-147.04;52.81
39075;BME280;24826;52.070;20.970;2023-02-23T11:49:32;61448.38;;;-147.04;52.83
39075;BME280;24826;52.070;20.970;2023-02-23T11:52:21;61428.47;;;-147.04;52.77
39075;BME280;24826;52.070;20.970;2023-02-23T11:55:15;61368.84;;;-147.04;53.07
39075;BME280;24826;52.070;20.970;2023-02-23T11:58:37;61380.75;;;-147.04;52.62
39075;BME280;24826;52.070;20.970;2023-02-23T12:01:34;61396.66;;;-147.04;52.81
39075;BME280;24826;52.070;20.970;2023-02-23T12:04:37;61380.75;;;-147.04;52.34
39075;BME280;24826;52.070;20.970;2023-02-23T12:10:38;61420.53;;;-147.04;52.31
39075;BME280;24826;52.070;20.970;2023-02-23T12:14:15;61434.44;;;-147.04;52.17
39075;BME280;24826;52.070;20.970;2023-02-23T12:16:42;61440.41;;;-147.04;52.19
39075;BME280;24826;52.070;20.970;2023-02-23T12:19:52;61408.59;;;-147.04;52.62
39075;BME280;24826;52.070;20.970;2023-02-23T12:22:45;61424.50;;;-147.04;52.64
39075;BME280;24826;52.070;20.970;2023-02-23T12:25:46;61376.78;;;-147.04;52.38
39075;BME280;24826;52.070;20.970;2023-02-23T12:28:37;61434.44;;;-147.04;52.59
39075;BME280;24826;52.070;20.970;2023-02-23T12:31:42;61432.47;;;-147.04;51.93
39075;BME280;24826;52.070;20.970;2023-02-23T12:34:39;61416.56;;;-147.04;52.28
39075;BME280;24826;52.070;20.970;2023-02-23T12:37:30;61416.56;;;-147.04;51.84
39075;BME280;24826;52.070;20.970;2023-02-23T12:40:26;61414.56;;;-147.04;51.61
39075;BME280;24826;52.070;20.970;2023-02-23T12:46:12;61384.75;;;-147.04;51.60
39075;BME280;24826;52.070;20.970;2023-02-23T12:49:10;61456.31;;;-147.04;51.94
39075;BME280;24826;52.070;20.970;2023-02-23T12:52:27;61450.34;;;-147.04;51.70
39075;BME280;24826;52.070;20.970;2023-02-23T12:55:23;61382.75;;;-147.04;51.49
39075;BME280;24826;52.070;20.970;2023-02-23T12:58:22;61398.66;;;-147.04;51.85
39075;BME280;24826;52.070;20.970;2023-02-23T13:01:11;61406.63;;;-147.04;51.73
39075;BME280;24826;52.070;20.970;2023-02-23T13:07:23;61424.50;;;-147.04;52.51
39075;BME280;24826;52.070;20.970;2023-02-23T13:13:22;61416.56;;;-147.04;51.48
39075;BME280;24826;52.070;20.970;2023-02-23T13:26:07;61384.75;;;-147.04;51.28
39075;BME280;24826;52.070;20.970;2023-02-23T13:31:36;61372.81;;;-147.04;51.87
39075;BME280;24826;52.070;20.970;2023-02-23T13:34:27;61388.72;;;-147.04;51.93
39075;BME280;24826;52.070;20.970;2023-02-23T13:37:15;61420.53;;;-147.04;51.93
39075;BME280;24826;52.070;20.970;2023-02-23T13:40:31;61372.81;;;-147.04;51.85
39075;BME280;24826;52.070;20.970;2023-02-23T13:49:31;61424.50;;;-147.04;52.23
39075;BME280;24826;52.070;20.970;2023-02-23T13:52:29;61422.53;;;-147.04;52.98
39075;BME280;24826;52.070;20.970;2023-02-23T13:58:26;61390.72;;;-147.04;52.59
39075;BME280;24826;52.070;20.970;2023-02-23T14:01:24;61537.84;;;-147.04;51.71
39075;BME280;24826;52.070;20.970;2023-02-23T14:04:21;61414.56;;;-147.04;51.92
39075;BME280;24826;52.070;20.970;2023-02-23T14:09:57;61440.41;;;-147.04;52.50
39075;BME280;24826;52.070;20.970;2023-02-23T14:19:59;61368.84;;;-147.04;52.12
39075;BME280;24826;52.070;20.970;2023-02-23T14:22:14;61376.78;;;-147.04;52.01
39075;BME280;24826;52.070;20.970;2023-02-23T14:33:58;61360.88;;;-147.04;52.02
39075;BME280;24826;52.070;20.970;2023-02-23T14:36:43;61551.78;;;-147.04;51.96
39075;BME280;24826;52.070;20.970;2023-02-23T14:39:27;61400.66;;;-147.04;52.60
39075;BME280;24826;52.070;20.970;2023-02-23T14:42:20;61428.47;;;-147.04;52.42
39075;BME280;24826;52.070;20.970;2023-02-23T14:45:23;61376.78;;;-147.04;52.23
39075;BME280;24826;52.070;20.970;2023-02-23T14:48:11;61386.72;;;-147.04;52.69
39075;BME280;24826;52.070;20.970;2023-02-23T14:51:12;61380.75;;;-147.04;52.46
39075;BME280;24826;52.070;20.970;2023-02-23T14:54:00;61358.88;;;-147.04;52.80
39075;BME280;24826;52.070;20.970;2023-02-23T14:56:46;61366.84;;;-147.04;52.93
39075;BME280;24826;52.070;20.970;2023-02-23T14:59:39;61341.00;;;-147.04;53.19
39075;BME280;24826;52.070;20.970;2023-02-23T15:02:25;61325.09;;;-147.04;53.04
39075;BME280;24826;52.070;20.970;2023-02-23T15:05:24;61352.94;;;-147.04;53.49
39075;BME280;24826;52.070;20.970;2023-02-23T15:08:12;61364.84;;;-147.04;53.76
39075;BME280;24826;52.070;20.970;2023-02-23T15:11:02;61352.94;;;-147.04;54.71
39075;BME280;24826;52.070;20.970;2023-02-23T15:13:49;61327.06;;;-147.04;54.47
39075;BME280;24826;52.070;20.970;2023-02-23T15:16:35;61329.06;;;-147.04;54.03
39075;BME280;24826;52.070;20.970;2023-02-23T15:19:20;61319.13;;;-147.04;54.45
39075;BME280;24826;52.070;20.970;2023-02-23T15:22:07;61360.88;;;-147.04;54.79
39075;BME280;24826;52.070;20.970;2023-02-23T15:24:55;61273.38;;;-147.04;54.67
39075;BME280;24826;52.070;20.970;2023-02-23T15:27:42;61333.03;;;-147.04;54.74
39075;BME280;24826;52.070;20.970;2023-02-23T15:30:31;61352.94;;;-147.04;54.84
39075;BME280;24826;52.070;20.970;2023-02-23T15:33:18;61337.00;;;-147.04;55.47
39075;BME280;24826;52.070;20.970;2023-02-23T15:36:09;61380.75;;;-147.04;55.24
39075;BME280;24826;52.070;20.970;2023-02-23T15:39:00;61307.19;;;-147.04;55.53
39075;BME280;24826;52.070;20.970;2023-02-23T15:41:47;61321.13;;;-147.04;55.43
39075;BME280;24826;52.070;20.970;2023-02-23T15:44:32;61352.94;;;-147.04;56.26
39075;BME280;24826;52.070;20.970;2023-02-23T15:47:21;61313.16;;;-147.04;56.08
39075;BME280;24826;52.070;20.970;2023-02-23T15:50:18;61323.09;;;-147.04;56.29
39075;BME280;24826;52.070;20.970;2023-02-23T15:53:16;61339.00;;;-147.04;56.52
39075;BME280;24826;52.070;20.970;2023-02-23T15:56:11;61323.09;;;-147.04;56.60
39075;BME280;24826;52.070;20.970;2023-02-23T15:59:09;61303.22;;;-147.04;56.86